sensor_id;sensor_type;location;lat;lon;timestamp;P1;P2;P0
61815;PMS5003;57055;-35.296;149.168;2023-07-16T00:00:48;7;7;
61815;PMS5003;57055;-35.296;149.168;2023-07-16T00:03:18;9;9;
61815;PMS5003;57055;-35.296;149.168;2023-07-16T00:05:49;8;8;
61815;PMS5003;57055;-35.296;149.168;2023-07-16T00:08:19;7;7;
61815;PMS5003;57055;-35.296;149.168;2023-07-16T00:10:47;8;8;
61815;PMS5003;57055;-35.296;149.168;2023-07-16T00:13:16;11;10;
61815;PMS5003;57055;-35.296;149.168;2023-07-16T00:15:45;6;6;
61815;PMS5003;57055;-35.296;149.168;2023-07-16T00:18:14;10;9;
61815;PMS5003;57055;-35.296;149.168;2023-07-16T00:20:43;12;10;
61815;PMS5003;57055;-35.296;149.168;2023-07-16T00:23:12;8;7;
61815;PMS5003;57055;-35.296;149.168;2023-07-16T00:25:41;7;6;
61815;PMS5003;57055;-35.296;149.168;2023-07-16T00:28:10;6;5;
61815;PMS5003;57055;-35.296;149.168;2023-07-16T00:30:39;6;6;
61815;PMS5003;57055;-35.296;149.168;2023-07-16T00:33:08;7;7;
61815;PMS5003;57055;-35.296;149.168;2023-07-16T00:35:36;5;5;
61815;PMS5003;57055;-35.296;149.168;2023-07-16T00:38:05;6;6;
61815;PMS5003;57055;-35.296;149.168;2023-07-16T00:40:34;5;5;
61815;PMS5003;57055;-35.296;149.168;2023-07-16T00:43:03;7;7;
61815;PMS5003;57055;-35.296;149.168;2023-07-16T00:45:32;7;6;
61815;PMS5003;57055;-35.296;149.168;2023-07-16T00:48:01;8;8;
61815;PMS5003;57055;-35.296;149.168;2023-07-16T00:50:32;8;8;
61815;PMS5003;57055;-35.296;149.168;2023-07-16T00:53:01;7;7;
61815;PMS5003;57055;-35.296;149.168;2023-07-16T00:55:30;6;6;
61815;PMS5003;57055;-35.296;149.168;2023-07-16T00:58:00;9;9;
61815;PMS5003;57055;-35.296;149.168;2023-07-16T01:00:31;10;10;
61815;PMS5003;57055;-35.296;149.168;2023-07-16T01:03:01;8;8;
61815;PMS5003;57055;-35.296;149.168;2023-07-16T01:05:34;8;7;
61815;PMS5003;57055;-35.296;149.168;2023-07-16T01:08:07;5;5;
61815;PMS5003;57055;-35.296;149.168;2023-07-16T01:10:38;9;9;
61815;PMS5003;57055;-35.296;149.168;2023-07-16T01:13:07;9;8;
61815;PMS5003;57055;-35.296;149.168;2023-07-16T01:15:36;9;8;
61815;PMS5003;57055;-35.296;149.168;2023-07-16T01:18:05;8;8;
61815;PMS5003;57055;-35.296;149.168;2023-07-16T01:20:34;7;7;
61815;PMS5003;57055;-35.296;149.168;2023-07-16T01:23:23;5;5;
61815;PMS5003;57055;-35.296;149.168;2023-07-16T01:26:06;7;7;
61815;PMS5003;57055;-35.296;149.168;2023-07-16T01:29:51;19;19;
61815;PMS5003;57055;-35.296;149.168;2023-07-16T01:32:21;72;67;
61815;PMS5003;57055;-35.296;149.168;2023-07-16T01:34:51;119;110;
61815;PMS5003;57055;-35.296;149.168;2023-07-16T01:37:21;81;75;
61815;PMS5003;57055;-35.296;149.168;2023-07-16T01:39:50;80;75;
61815;PMS5003;57055;-35.296;149.168;2023-07-16T01:42:19;34;32;
61815;PMS5003;57055;-35.296;149.168;2023-07-16T01:44:49;154;148;
61815;PMS5003;57055;-35.296;149.168;2023-07-16T01:47:21;56;55;
61815;PMS5003;57055;-35.296;149.168;2023-07-16T01:50:00;29;29;
61815;PMS5003;57055;-35.296;149.168;2023-07-16T01:52:30;28;27;
61815;PMS5003;57055;-35.296;149.168;2023-07-16T01:54:59;9;9;
61815;PMS5003;57055;-35.296;149.168;2023-07-16T01:57:28;33;32;
61815;PMS5003;57055;-35.296;149.168;2023-07-16T01:59:57;13;13;
61815;PMS5003;57055;-35.296;149.168;2023-07-16T02:02:25;37;34;
61815;PMS5003;57055;-35.296;149.168;2023-07-16T02:04:54;47;42;
61815;PMS5003;57055;-35.296;149.168;2023-07-16T02:07:23;26;22;
61815;PMS5003;57055;-35.296;149.168;2023-07-16T02:09:52;15;13;
61815;PMS5003;57055;-35.296;149.168;2023-07-16T02:12:21;25;22;
61815;PMS5003;57055;-35.296;149.168;2023-07-16T02:14:51;44;41;
61815;PMS5003;57055;-35.296;149.168;2023-07-16T02:17:20;31;30;
61815;PMS5003;57055;-35.296;149.168;2023-07-16T02:19:49;24;22;
61815;PMS5003;57055;-35.296;149.168;2023-07-16T02:22:18;32;31;
61815;PMS5003;57055;-35.296;149.168;2023-07-16T02:24:47;34;32;
61815;PMS5003;57055;-35.296;149.168;2023-07-16T02:27:16;39;34;
61815;PMS5003;57055;-35.296;149.168;2023-07-16T02:29:45;16;16;
61815;PMS5003;57055;-35.296;149.168;2023-07-16T02:32:14;27;23;
61815;PMS5003;57055;-35.296;149.168;2023-07-16T02:34:43;30;27;
61815;PMS5003;57055;-35.296;149.168;2023-07-16T02:37:12;23;21;
61815;PMS5003;57055;-35.296;149.168;2023-07-16T02:39:41;34;26;
61815;PMS5003;57055;-35.296;149.168;2023-07-16T02:42:11;9;9;
61815;PMS5003;57055;-35.296;149.168;2023-07-16T02:44:40;5;5;
61815;PMS5003;57055;-35.296;149.168;2023-07-16T02:47:10;7;6;
61815;PMS5003;57055;-35.296;149.168;2023-07-16T02:49:39;6;6;
61815;PMS5003;57055;-35.296;149.168;2023-07-16T02:52:08;8;8;
61815;PMS5003;57055;-35.296;149.168;2023-07-16T02:54:37;7;4;
61815;PMS5003;57055;-35.296;149.168;2023-07-16T02:57:05;6;6;
61815;PMS5003;57055;-35.296;149.168;2023-07-16T02:59:34;6;6;
61815;PMS5003;57055;-35.296;149.168;2023-07-16T03:02:03;4;4;
61815;PMS5003;57055;-35.296;149.168;2023-07-16T03:04:31;7;7;
61815;PMS5003;57055;-35.296;149.168;2023-07-16T03:07:00;7;6;
61815;PMS5003;57055;-35.296;149.168;2023-07-16T03:09:29;4;4;
61815;PMS5003;57055;-35.296;149.168;2023-07-16T03:11:57;7;5;
61815;PMS5003;57055;-35.296;149.168;2023-07-16T03:14:26;5;5;
61815;PMS5003;57055;-35.296;149.168;2023-07-16T03:16:55;6;6;
61815;PMS5003;57055;-35.296;149.168;2023-07-16T03:19:23;5;5;
61815;PMS5003;57055;-35.296;149.168;2023-07-16T03:21:52;6;6;
61815;PMS5003;57055;-35.296;149.168;2023-07-16T03:24:21;5;5;
61815;PMS5003;57055;-35.296;149.168;2023-07-16T03:26:50;4;4;
61815;PMS5003;57055;-35.296;149.168;2023-07-16T03:29:18;3;3;
61815;PMS5003;57055;-35.296;149.168;2023-07-16T03:31:48;4;4;
61815;PMS5003;57055;-35.296;149.168;2023-07-16T03:34:17;6;5;
61815;PMS5003;57055;-35.296;149.168;2023-07-16T03:36:45;5;5;
61815;PMS5003;57055;-35.296;149.168;2023-07-16T03:39:14;7;7;
61815;PMS5003;57055;-35.296;149.168;2023-07-16T03:41:42;5;5;
61815;PMS5003;57055;-35.296;149.168;2023-07-16T03:44:11;4;4;
61815;PMS5003;57055;-35.296;149.168;2023-07-16T03:46:41;5;4;
61815;PMS5003;57055;-35.296;149.168;2023-07-16T03:49:09;4;4;
61815;PMS5003;57055;-35.296;149.168;2023-07-16T03:51:38;6;4;
61815;PMS5003;57055;-35.296;149.168;2023-07-16T03:54:07;3;3;
61815;PMS5003;57055;-35.296;149.168;2023-07-16T03:56:36;6;4;
61815;PMS5003;57055;-35.296;149.168;2023-07-16T03:59:04;6;3;
61815;PMS5003;57055;-35.296;149.168;2023-07-16T04:01:33;5;5;
61815;PMS5003;57055;-35.296;149.168;2023-07-16T04:04:02;3;3;
61815;PMS5003;57055;-35.296;149.168;2023-07-16T04:06:30;4;4;
61815;PMS5003;57055;-35.296;149.168;2023-07-16T04:08:59;3;3;
61815;PMS5003;57055;-35.296;149.168;2023-07-16T04:11:28;3;3;
61815;PMS5003;57055;-35.296;149.168;2023-07-16T04:13:56;2;2;
61815;PMS5003;57055;-35.296;149.168;2023-07-16T04:16:25;3;3;
61815;PMS5003;57055;-35.296;149.168;2023-07-16T04:18:54;2;2;
61815;PMS5003;57055;-35.296;149.168;2023-07-16T04:21:22;2;2;
61815;PMS5003;57055;-35.296;149.168;2023-07-16T04:23:51;2;2;
61815;PMS5003;57055;-35.296;149.168;2023-07-16T04:26:20;2;2;
61815;PMS5003;57055;-35.296;149.168;2023-07-16T04:28:48;6;4;
61815;PMS5003;57055;-35.296;149.168;2023-07-16T04:31:17;2;2;
61815;PMS5003;57055;-35.296;149.168;2023-07-16T04:33:46;3;3;
61815;PMS5003;57055;-35.296;149.168;2023-07-16T04:36:15;3;3;
61815;PMS5003;57055;-35.296;149.168;2023-07-16T04:38:44;2;2;
61815;PMS5003;57055;-35.296;149.168;2023-07-16T04:41:13;4;4;
61815;PMS5003;57055;-35.296;149.168;2023-07-16T04:43:43;4;3;
61815;PMS5003;57055;-35.296;149.168;2023-07-16T04:46:12;2;2;
61815;PMS5003;57055;-35.296;149.168;2023-07-16T04:48:41;3;3;
61815;PMS5003;57055;-35.296;149.168;2023-07-16T04:51:10;3;3;
61815;PMS5003;57055;-35.296;149.168;2023-07-16T04:53:39;2;2;
61815;PMS5003;57055;-35.296;149.168;2023-07-16T04:56:11;3;2;
61815;PMS5003;57055;-35.296;149.168;2023-07-16T04:58:41;2;2;
61815;PMS5003;57055;-35.296;149.168;2023-07-16T05:01:10;2;2;
61815;PMS5003;57055;-35.296;149.168;2023-07-16T05:03:39;2;2;
61815;PMS5003;57055;-35.296;149.168;2023-07-16T05:06:07;2;1;
61815;PMS5003;57055;-35.296;149.168;2023-07-16T05:08:36;1;1;
61815;PMS5003;57055;-35.296;149.168;2023-07-16T05:11:05;1;1;
61815;PMS5003;57055;-35.296;149.168;2023-07-16T05:13:33;0;0;
61815;PMS5003;57055;-35.296;149.168;2023-07-16T05:16:02;1;1;
61815;PMS5003;57055;-35.296;149.168;2023-07-16T05:18:32;2;2;
61815;PMS5003;57055;-35.296;149.168;2023-07-16T05:21:00;5;1;
61815;PMS5003;57055;-35.296;149.168;2023-07-16T05:23:29;1;1;
61815;PMS5003;57055;-35.296;149.168;2023-07-16T05:25:58;1;1;
61815;PMS5003;57055;-35.296;149.168;2023-07-16T05:28:26;3;3;
61815;PMS5003;57055;-35.296;149.168;2023-07-16T05:30:59;0;0;
61815;PMS5003;57055;-35.296;149.168;2023-07-16T05:33:28;1;1;
61815;PMS5003;57055;-35.296;149.168;2023-07-16T05:35:58;0;0;
61815;PMS5003;57055;-35.296;149.168;2023-07-16T05:38:27;1;1;
61815;PMS5003;57055;-35.296;149.168;2023-07-16T05:41:00;1;1;
61815;PMS5003;57055;-35.296;149.168;2023-07-16T05:43:30;0;0;
61815;PMS5003;57055;-35.296;149.168;2023-07-16T05:45:58;1;1;
61815;PMS5003;57055;-35.296;149.168;2023-07-16T05:48:27;0;0;
61815;PMS5003;57055;-35.296;149.168;2023-07-16T05:50:56;0;0;
61815;PMS5003;57055;-35.296;149.168;2023-07-16T05:53:25;1;1;
61815;PMS5003;57055;-35.296;149.168;2023-07-16T05:55:54;0;0;
61815;PMS5003;57055;-35.296;149.168;2023-07-16T05:58:23;1;0;
61815;PMS5003;57055;-35.296;149.168;2023-07-16T06:00:51;1;1;
61815;PMS5003;57055;-35.296;149.168;2023-07-16T06:03:20;0;0;
61815;PMS5003;57055;-35.296;149.168;2023-07-16T06:05:49;0;0;
61815;PMS5003;57055;-35.296;149.168;2023-07-16T06:08:17;1;1;
61815;PMS5003;57055;-35.296;149.168;2023-07-16T06:10:46;0;0;
61815;PMS5003;57055;-35.296;149.168;2023-07-16T06:13:15;2;2;
61815;PMS5003;57055;-35.296;149.168;2023-07-16T06:15:45;2;0;
61815;PMS5003;57055;-35.296;149.168;2023-07-16T06:18:15;0;0;
61815;PMS5003;57055;-35.296;149.168;2023-07-16T06:20:44;0;0;
61815;PMS5003;57055;-35.296;149.168;2023-07-16T06:23:13;0;0;
61815;PMS5003;57055;-35.296;149.168;2023-07-16T06:25:42;2;1;
61815;PMS5003;57055;-35.296;149.168;2023-07-16T06:28:11;0;0;
61815;PMS5003;57055;-35.296;149.168;2023-07-16T06:30:40;1;1;
61815;PMS5003;57055;-35.296;149.168;2023-07-16T06:33:08;0;0;
61815;PMS5003;57055;-35.296;149.168;2023-07-16T06:35:37;0;0;
61815;PMS5003;57055;-35.296;149.168;2023-07-16T06:38:06;0;0;
61815;PMS5003;57055;-35.296;149.168;2023-07-16T06:40:35;1;1;
61815;PMS5003;57055;-35.296;149.168;2023-07-16T06:43:04;1;1;
61815;PMS5003;57055;-35.296;149.168;2023-07-16T06:45:33;1;1;
61815;PMS5003;57055;-35.296;149.168;2023-07-16T06:48:02;0;0;
61815;PMS5003;57055;-35.296;149.168;2023-07-16T06:50:31;1;1;
61815;PMS5003;57055;-35.296;149.168;2023-07-16T06:53:00;0;0;
61815;PMS5003;57055;-35.296;149.168;2023-07-16T06:55:29;1;1;
61815;PMS5003;57055;-35.296;149.168;2023-07-16T06:57:57;0;0;
61815;PMS5003;57055;-35.296;149.168;2023-07-16T07:00:26;0;0;
61815;PMS5003;57055;-35.296;149.168;2023-07-16T07:02:55;1;1;
61815;PMS5003;57055;-35.296;149.168;2023-07-16T07:05:23;0;0;
61815;PMS5003;57055;-35.296;149.168;2023-07-16T07:07:52;0;0;
61815;PMS5003;57055;-35.296;149.168;2023-07-16T07:10:21;2;2;
61815;PMS5003;57055;-35.296;149.168;2023-07-16T07:12:50;0;0;
61815;PMS5003;57055;-35.296;149.168;2023-07-16T07:15:19;1;1;
61815;PMS5003;57055;-35.296;149.168;2023-07-16T07:17:48;1;1;
61815;PMS5003;57055;-35.296;149.168;2023-07-16T07:20:17;1;1;
61815;PMS5003;57055;-35.296;149.168;2023-07-16T07:22:45;3;3;
61815;PMS5003;57055;-35.296;149.168;2023-07-16T07:25:14;2;2;
61815;PMS5003;57055;-35.296;149.168;2023-07-16T07:27:43;1;1;
61815;PMS5003;57055;-35.296;149.168;2023-07-16T07:30:12;1;0;
61815;PMS5003;57055;-35.296;149.168;2023-07-16T07:32:40;2;2;
61815;PMS5003;57055;-35.296;149.168;2023-07-16T07:35:09;1;1;
61815;PMS5003;57055;-35.296;149.168;2023-07-16T07:37:38;4;2;
61815;PMS5003;57055;-35.296;149.168;2023-07-16T07:40:07;0;0;
61815;PMS5003;57055;-35.296;149.168;2023-07-16T07:42:36;3;3;
61815;PMS5003;57055;-35.296;149.168;2023-07-16T07:45:05;1;1;
61815;PMS5003;57055;-35.296;149.168;2023-07-16T07:47:35;2;2;
61815;PMS5003;57055;-35.296;149.168;2023-07-16T07:50:04;2;2;
61815;PMS5003;57055;-35.296;149.168;2023-07-16T07:52:33;1;1;
61815;PMS5003;57055;-35.296;149.168;2023-07-16T07:55:02;1;1;
61815;PMS5003;57055;-35.296;149.168;2023-07-16T07:57:31;1;1;
61815;PMS5003;57055;-35.296;149.168;2023-07-16T08:00:00;2;2;
61815;PMS5003;57055;-35.296;149.168;2023-07-16T08:02:29;0;0;
61815;PMS5003;57055;-35.296;149.168;2023-07-16T08:04:58;2;2;
61815;PMS5003;57055;-35.296;149.168;2023-07-16T08:07:26;1;1;
61815;PMS5003;57055;-35.296;149.168;2023-07-16T08:09:55;1;1;
61815;PMS5003;57055;-35.296;149.168;2023-07-16T08:12:24;1;0;
61815;PMS5003;57055;-35.296;149.168;2023-07-16T08:14:53;1;1;
61815;PMS5003;57055;-35.296;149.168;2023-07-16T08:17:22;1;1;
61815;PMS5003;57055;-35.296;149.168;2023-07-16T08:19:51;1;1;
61815;PMS5003;57055;-35.296;149.168;2023-07-16T08:22:21;1;1;
61815;PMS5003;57055;-35.296;149.168;2023-07-16T08:24:50;1;1;
61815;PMS5003;57055;-35.296;149.168;2023-07-16T08:27:19;2;1;
61815;PMS5003;57055;-35.296;149.168;2023-07-16T08:29:48;0;0;
61815;PMS5003;57055;-35.296;149.168;2023-07-16T08:32:18;3;2;
61815;PMS5003;57055;-35.296;149.168;2023-07-16T08:34:46;2;1;
61815;PMS5003;57055;-35.296;149.168;2023-07-16T08:37:15;1;1;
61815;PMS5003;57055;-35.296;149.168;2023-07-16T08:39:44;2;2;
61815;PMS5003;57055;-35.296;149.168;2023-07-16T08:42:13;2;2;
61815;PMS5003;57055;-35.296;149.168;2023-07-16T08:44:43;2;2;
61815;PMS5003;57055;-35.296;149.168;2023-07-16T08:47:12;2;2;
61815;PMS5003;57055;-35.296;149.168;2023-07-16T08:49:41;4;4;
61815;PMS5003;57055;-35.296;149.168;2023-07-16T08:52:18;3;3;
61815;PMS5003;57055;-35.296;149.168;2023-07-16T08:54:47;7;7;
61815;PMS5003;57055;-35.296;149.168;2023-07-16T08:57:16;5;4;
61815;PMS5003;57055;-35.296;149.168;2023-07-16T08:59:47;6;6;
61815;PMS5003;57055;-35.296;149.168;2023-07-16T09:02:17;4;4;
61815;PMS5003;57055;-35.296;149.168;2023-07-16T09:04:47;6;6;
61815;PMS5003;57055;-35.296;149.168;2023-07-16T09:07:17;3;3;
61815;PMS5003;57055;-35.296;149.168;2023-07-16T09:09:54;2;2;
61815;PMS5003;57055;-35.296;149.168;2023-07-16T09:12:26;0;0;
61815;PMS5003;57055;-35.296;149.168;2023-07-16T09:14:55;3;1;
61815;PMS5003;57055;-35.296;149.168;2023-07-16T09:17:24;0;0;
61815;PMS5003;57055;-35.296;149.168;2023-07-16T09:19:54;0;0;
61815;PMS5003;57055;-35.296;149.168;2023-07-16T09:22:23;2;2;
61815;PMS5003;57055;-35.296;149.168;2023-07-16T09:24:52;2;2;
61815;PMS5003;57055;-35.296;149.168;2023-07-16T09:27:21;2;2;
61815;PMS5003;57055;-35.296;149.168;2023-07-16T09:29:55;3;3;
61815;PMS5003;57055;-35.296;149.168;2023-07-16T09:32:32;3;3;
61815;PMS5003;57055;-35.296;149.168;2023-07-16T09:35:05;2;2;
61815;PMS5003;57055;-35.296;149.168;2023-07-16T09:37:36;1;1;
61815;PMS5003;57055;-35.296;149.168;2023-07-16T09:40:06;3;3;
61815;PMS5003;57055;-35.296;149.168;2023-07-16T09:42:38;2;2;
61815;PMS5003;57055;-35.296;149.168;2023-07-16T09:45:16;1;1;
61815;PMS5003;57055;-35.296;149.168;2023-07-16T09:47:46;2;2;
61815;PMS5003;57055;-35.296;149.168;2023-07-16T09:50:15;2;1;
61815;PMS5003;57055;-35.296;149.168;2023-07-16T09:52:45;1;1;
61815;PMS5003;57055;-35.296;149.168;2023-07-16T09:55:14;1;1;
61815;PMS5003;57055;-35.296;149.168;2023-07-16T09:57:43;0;0;
61815;PMS5003;57055;-35.296;149.168;2023-07-16T10:00:14;2;2;
61815;PMS5003;57055;-35.296;149.168;2023-07-16T10:02:44;2;2;
61815;PMS5003;57055;-35.296;149.168;2023-07-16T10:05:14;2;2;
61815;PMS5003;57055;-35.296;149.168;2023-07-16T10:07:51;0;0;
61815;PMS5003;57055;-35.296;149.168;2023-07-16T10:10:25;1;1;
61815;PMS5003;57055;-35.296;149.168;2023-07-16T10:12:56;1;1;
61815;PMS5003;57055;-35.296;149.168;2023-07-16T10:15:26;1;1;
61815;PMS5003;57055;-35.296;149.168;2023-07-16T10:17:56;2;2;
61815;PMS5003;57055;-35.296;149.168;2023-07-16T10:20:32;0;0;
61815;PMS5003;57055;-35.296;149.168;2023-07-16T10:23:10;2;2;
61815;PMS5003;57055;-35.296;149.168;2023-07-16T10:25:39;0;0;
61815;PMS5003;57055;-35.296;149.168;2023-07-16T10:28:24;2;2;
61815;PMS5003;57055;-35.296;149.168;2023-07-16T10:30:53;3;3;
61815;PMS5003;57055;-35.296;149.168;2023-07-16T10:33:22;1;1;
61815;PMS5003;57055;-35.296;149.168;2023-07-16T10:35:51;1;1;
61815;PMS5003;57055;-35.296;149.168;2023-07-16T10:38:19;2;2;
61815;PMS5003;57055;-35.296;149.168;2023-07-16T10:40:48;0;0;
61815;PMS5003;57055;-35.296;149.168;2023-07-16T10:43:18;2;2;
61815;PMS5003;57055;-35.296;149.168;2023-07-16T10:45:47;1;1;
61815;PMS5003;57055;-35.296;149.168;2023-07-16T10:48:17;0;0;
61815;PMS5003;57055;-35.296;149.168;2023-07-16T10:50:53;1;1;
61815;PMS5003;57055;-35.296;149.168;2023-07-16T10:53:22;1;1;
61815;PMS5003;57055;-35.296;149.168;2023-07-16T10:55:51;2;2;
61815;PMS5003;57055;-35.296;149.168;2023-07-16T10:58:21;1;1;
61815;PMS5003;57055;-35.296;149.168;2023-07-16T11:00:49;1;1;
61815;PMS5003;57055;-35.296;149.168;2023-07-16T11:03:18;2;2;
61815;PMS5003;57055;-35.296;149.168;2023-07-16T11:05:47;4;4;
61815;PMS5003;57055;-35.296;149.168;2023-07-16T11:08:22;7;6;
61815;PMS5003;57055;-35.296;149.168;2023-07-16T11:10:54;6;6;
61815;PMS5003;57055;-35.296;149.168;2023-07-16T11:13:25;6;6;
61815;PMS5003;57055;-35.296;149.168;2023-07-16T11:15:56;9;9;
61815;PMS5003;57055;-35.296;149.168;2023-07-16T11:18:33;8;8;
61815;PMS5003;57055;-35.296;149.168;2023-07-16T11:21:02;10;9;
61815;PMS5003;57055;-35.296;149.168;2023-07-16T11:23:34;8;8;
61815;PMS5003;57055;-35.296;149.168;2023-07-16T11:26:03;9;9;
61815;PMS5003;57055;-35.296;149.168;2023-07-16T11:28:39;9;9;
61815;PMS5003;57055;-35.296;149.168;2023-07-16T11:31:13;10;9;
61815;PMS5003;57055;-35.296;149.168;2023-07-16T11:33:43;9;9;
61815;PMS5003;57055;-35.296;149.168;2023-07-16T11:36:12;14;9;
61815;PMS5003;57055;-35.296;149.168;2023-07-16T11:38:44;9;9;
61815;PMS5003;57055;-35.296;149.168;2023-07-16T11:41:15;8;7;
61815;PMS5003;57055;-35.296;149.168;2023-07-16T11:43:49;7;7;
61815;PMS5003;57055;-35.296;149.168;2023-07-16T11:46:19;8;8;
61815;PMS5003;57055;-35.296;149.168;2023-07-16T11:48:48;6;6;
61815;PMS5003;57055;-35.296;149.168;2023-07-16T11:51:17;7;7;
61815;PMS5003;57055;-35.296;149.168;2023-07-16T11:53:46;6;5;
61815;PMS5003;57055;-35.296;149.168;2023-07-16T11:56:15;6;6;
61815;PMS5003;57055;-35.296;149.168;2023-07-16T11:58:43;7;5;
61815;PMS5003;57055;-35.296;149.168;2023-07-16T12:01:12;3;3;
61815;PMS5003;57055;-35.296;149.168;2023-07-16T12:03:41;6;6;
61815;PMS5003;57055;-35.296;149.168;2023-07-16T12:06:10;5;5;
61815;PMS5003;57055;-35.296;149.168;2023-07-16T12:08:39;5;5;
61815;PMS5003;57055;-35.296;149.168;2023-07-16T12:11:08;7;6;
61815;PMS5003;57055;-35.296;149.168;2023-07-16T12:13:36;5;5;
61815;PMS5003;57055;-35.296;149.168;2023-07-16T12:16:06;3;3;
61815;PMS5003;57055;-35.296;149.168;2023-07-16T12:18:34;5;3;
61815;PMS5003;57055;-35.296;149.168;2023-07-16T12:21:03;3;3;
61815;PMS5003;57055;-35.296;149.168;2023-07-16T12:23:32;4;4;
61815;PMS5003;57055;-35.296;149.168;2023-07-16T12:26:01;4;4;
61815;PMS5003;57055;-35.296;149.168;2023-07-16T12:28:30;7;5;
61815;PMS5003;57055;-35.296;149.168;2023-07-16T12:30:59;5;3;
61815;PMS5003;57055;-35.296;149.168;2023-07-16T12:33:28;3;3;
61815;PMS5003;57055;-35.296;149.168;2023-07-16T12:35:57;3;3;
61815;PMS5003;57055;-35.296;149.168;2023-07-16T12:38:25;5;5;
61815;PMS5003;57055;-35.296;149.168;2023-07-16T12:40:54;5;5;
61815;PMS5003;57055;-35.296;149.168;2023-07-16T12:43:23;3;3;
61815;PMS5003;57055;-35.296;149.168;2023-07-16T12:45:53;5;5;
61815;PMS5003;57055;-35.296;149.168;2023-07-16T12:48:22;4;4;
61815;PMS5003;57055;-35.296;149.168;2023-07-16T12:50:51;4;4;
61815;PMS5003;57055;-35.296;149.168;2023-07-16T12:53:21;4;4;
61815;PMS5003;57055;-35.296;149.168;2023-07-16T12:55:50;3;3;
61815;PMS5003;57055;-35.296;149.168;2023-07-16T12:58:20;4;4;
61815;PMS5003;57055;-35.296;149.168;2023-07-16T13:00:49;5;3;
61815;PMS5003;57055;-35.296;149.168;2023-07-16T13:03:18;4;4;
61815;PMS5003;57055;-35.296;149.168;2023-07-16T13:05:47;4;4;
61815;PMS5003;57055;-35.296;149.168;2023-07-16T13:08:16;4;4;
61815;PMS5003;57055;-35.296;149.168;2023-07-16T13:10:45;5;5;
61815;PMS5003;57055;-35.296;149.168;2023-07-16T13:13:14;3;3;
61815;PMS5003;57055;-35.296;149.168;2023-07-16T13:15:43;4;4;
61815;PMS5003;57055;-35.296;149.168;2023-07-16T13:18:12;5;5;
61815;PMS5003;57055;-35.296;149.168;2023-07-16T13:20:40;4;4;
61815;PMS5003;57055;-35.296;149.168;2023-07-16T13:23:09;4;4;
61815;PMS5003;57055;-35.296;149.168;2023-07-16T13:25:38;6;4;
61815;PMS5003;57055;-35.296;149.168;2023-07-16T13:28:07;6;6;
61815;PMS5003;57055;-35.296;149.168;2023-07-16T13:30:36;4;4;
61815;PMS5003;57055;-35.296;149.168;2023-07-16T13:33:05;5;5;
61815;PMS5003;57055;-35.296;149.168;2023-07-16T13:35:34;5;5;
61815;PMS5003;57055;-35.296;149.168;2023-07-16T13:38:03;5;5;
61815;PMS5003;57055;-35.296;149.168;2023-07-16T13:40:32;5;5;
61815;PMS5003;57055;-35.296;149.168;2023-07-16T13:43:01;6;4;
61815;PMS5003;57055;-35.296;149.168;2023-07-16T13:45:30;5;5;
61815;PMS5003;57055;-35.296;149.168;2023-07-16T13:48:01;4;4;
61815;PMS5003;57055;-35.296;149.168;2023-07-16T13:50:30;5;5;
61815;PMS5003;57055;-35.296;149.168;2023-07-16T13:52:59;3;3;
61815;PMS5003;57055;-35.296;149.168;2023-07-16T13:55:28;4;4;
61815;PMS5003;57055;-35.296;149.168;2023-07-16T13:57:58;5;5;
61815;PMS5003;57055;-35.296;149.168;2023-07-16T14:00:27;6;6;
61815;PMS5003;57055;-35.296;149.168;2023-07-16T14:02:56;5;5;
61815;PMS5003;57055;-35.296;149.168;2023-07-16T14:05:25;5;5;
61815;PMS5003;57055;-35.296;149.168;2023-07-16T14:07:54;6;6;
61815;PMS5003;57055;-35.296;149.168;2023-07-16T14:10:23;7;7;
61815;PMS5003;57055;-35.296;149.168;2023-07-16T14:12:52;6;6;
61815;PMS5003;57055;-35.296;149.168;2023-07-16T14:15:20;4;4;
61815;PMS5003;57055;-35.296;149.168;2023-07-16T14:17:51;6;5;
61815;PMS5003;57055;-35.296;149.168;2023-07-16T14:20:20;5;5;
61815;PMS5003;57055;-35.296;149.168;2023-07-16T14:22:49;6;6;
61815;PMS5003;57055;-35.296;149.168;2023-07-16T14:25:18;5;5;
61815;PMS5003;57055;-35.296;149.168;2023-07-16T14:27:47;4;4;
61815;PMS5003;57055;-35.296;149.168;2023-07-16T14:30:16;6;6;
61815;PMS5003;57055;-35.296;149.168;2023-07-16T14:32:45;5;5;
61815;PMS5003;57055;-35.296;149.168;2023-07-16T14:35:14;4;4;
61815;PMS5003;57055;-35.296;149.168;2023-07-16T14:37:43;4;4;
61815;PMS5003;57055;-35.296;149.168;2023-07-16T14:40:12;3;3;
61815;PMS5003;57055;-35.296;149.168;2023-07-16T14:42:40;5;5;
61815;PMS5003;57055;-35.296;149.168;2023-07-16T14:45:10;6;4;
61815;PMS5003;57055;-35.296;149.168;2023-07-16T14:47:38;8;7;
61815;PMS5003;57055;-35.296;149.168;2023-07-16T14:50:08;4;4;
61815;PMS5003;57055;-35.296;149.168;2023-07-16T14:52:37;5;5;
61815;PMS5003;57055;-35.296;149.168;2023-07-16T14:55:06;3;3;
61815;PMS5003;57055;-35.296;149.168;2023-07-16T14:57:36;3;2;
61815;PMS5003;57055;-35.296;149.168;2023-07-16T15:00:05;1;1;
61815;PMS5003;57055;-35.296;149.168;2023-07-16T15:02:35;4;3;
61815;PMS5003;57055;-35.296;149.168;2023-07-16T15:05:04;5;5;
61815;PMS5003;57055;-35.296;149.168;2023-07-16T15:07:34;4;4;
61815;PMS5003;57055;-35.296;149.168;2023-07-16T15:10:03;4;4;
61815;PMS5003;57055;-35.296;149.168;2023-07-16T15:12:33;5;5;
61815;PMS5003;57055;-35.296;149.168;2023-07-16T15:15:02;6;4;
61815;PMS5003;57055;-35.296;149.168;2023-07-16T15:17:31;5;5;
61815;PMS5003;57055;-35.296;149.168;2023-07-16T15:20:00;4;4;
61815;PMS5003;57055;-35.296;149.168;2023-07-16T15:22:29;4;4;
61815;PMS5003;57055;-35.296;149.168;2023-07-16T15:24:58;8;6;
61815;PMS5003;57055;-35.296;149.168;2023-07-16T15:27:27;6;4;
61815;PMS5003;57055;-35.296;149.168;2023-07-16T15:29:56;7;6;
61815;PMS5003;57055;-35.296;149.168;2023-07-16T15:32:25;4;4;
61815;PMS5003;57055;-35.296;149.168;2023-07-16T15:34:54;7;5;
61815;PMS5003;57055;-35.296;149.168;2023-07-16T15:37:23;5;5;
61815;PMS5003;57055;-35.296;149.168;2023-07-16T15:39:52;4;4;
61815;PMS5003;57055;-35.296;149.168;2023-07-16T15:42:21;5;5;
61815;PMS5003;57055;-35.296;149.168;2023-07-16T15:44:50;5;5;
61815;PMS5003;57055;-35.296;149.168;2023-07-16T15:47:19;5;5;
61815;PMS5003;57055;-35.296;149.168;2023-07-16T15:49:47;6;6;
61815;PMS5003;57055;-35.296;149.168;2023-07-16T15:52:17;6;6;
61815;PMS5003;57055;-35.296;149.168;2023-07-16T15:54:46;7;6;
61815;PMS5003;57055;-35.296;149.168;2023-07-16T15:57:15;5;5;
61815;PMS5003;57055;-35.296;149.168;2023-07-16T15:59:45;8;6;
61815;PMS5003;57055;-35.296;149.168;2023-07-16T16:02:13;5;4;
61815;PMS5003;57055;-35.296;149.168;2023-07-16T16:04:42;5;4;
61815;PMS5003;57055;-35.296;149.168;2023-07-16T16:07:11;5;5;
61815;PMS5003;57055;-35.296;149.168;2023-07-16T16:09:40;5;4;
61815;PMS5003;57055;-35.296;149.168;2023-07-16T16:12:09;4;4;
61815;PMS5003;57055;-35.296;149.168;2023-07-16T16:14:38;3;3;